Time,TemperatureF,DewpointF,PressureIn,WindDirection,WindDirectionDegrees,WindSpeedMPH,WindSpeedGustMPH,Humidity,HourlyPrecipIn,Conditions,Clouds,dailyrainin,SoftwareType,DateUTC
2013-07-06 00:01:00,70.0,70.0,30.15,West,274,0.0,0.0,100,0.01,,,0.17,meteohub,2013-07-06 04:01:00,
2013-07-06 00:06:00,70.2,70.2,30.15,West,274,0.0,0.0,100,0.01,,,0.00,meteohub,2013-07-06 04:06:00,
2013-07-06 00:11:00,70.2,70.2,30.15,West,274,0.0,0.0,100,0.03,,,0.02,meteohub,2013-07-06 04:11:00,
2013-07-06 00:16:00,70.2,70.2,30.14,ESE,105,1.0,3.0,100,0.12,,,0.11,meteohub,2013-07-06 04:16:00,
2013-07-06 00:22:00,70.2,70.2,30.14,ESE,106,0.0,3.0,100,0.12,,,0.11,meteohub,2013-07-06 04:22:00,
2013-07-06 00:27:00,70.2,70.2,30.14,ESE,106,0.0,3.0,100,0.13,,,0.12,meteohub,2013-07-06 04:27:00,
2013-07-06 00:32:00,70.2,70.2,30.14,ESE,106,0.0,2.0,100,0.16,,,0.15,meteohub,2013-07-06 04:32:00,
2013-07-06 00:37:00,70.2,70.2,30.14,ESE,106,0.0,0.0,100,0.17,,,0.16,meteohub,2013-07-06 04:37:00,
2013-07-06 00:42:00,70.2,70.2,30.14,ESE,106,0.0,1.0,100,0.19,,,0.18,meteohub,2013-07-06 04:42:00,
2013-07-06 00:47:00,70.2,70.2,30.14,ESE,110,0.0,1.0,100,0.20,,,0.19,meteohub,2013-07-06 04:47:00,
2013-07-06 00:52:00,70.2,70.2,30.14,ESE,110,0.0,1.0,100,0.23,,,0.22,meteohub,2013-07-06 04:52:00,
2013-07-06 00:57:00,70.3,70.3,30.14,ESE,110,0.0,1.0,100,0.23,,,0.22,meteohub,2013-07-06 04:57:00,
2013-07-06 01:02:00,70.3,70.3,30.13,ESE,110,0.0,1.0,100,0.22,,,0.22,meteohub,2013-07-06 05:02:00,
2013-07-06 01:07:00,70.3,70.3,30.13,ESE,110,0.0,0.0,100,0.21,,,0.22,meteohub,2013-07-06 05:07:00,
2013-07-06 01:12:00,70.3,70.3,30.13,NW,323,1.0,0.0,100,0.20,,,0.22,meteohub,2013-07-06 05:12:00,
2013-07-06 01:17:00,70.3,70.3,30.13,West,281,0.0,0.0,100,0.11,,,0.22,meteohub,2013-07-06 05:17:00,
2013-07-06 01:22:00,70.3,70.3,30.12,West,279,0.0,2.0,100,0.11,,,0.22,meteohub,2013-07-06 05:22:00,
2013-07-06 01:27:00,70.3,70.3,30.13,SSW,202,0.0,2.0,100,0.10,,,0.23,meteohub,2013-07-06 05:27:00,
2013-07-06 01:32:00,70.3,70.3,30.13,East,94,0.0,2.0,100,0.08,,,0.24,meteohub,2013-07-06 05:32:00,
2013-07-06 01:37:00,70.3,70.3,30.13,ESE,108,0.0,2.0,100,0.08,,,0.24,meteohub,2013-07-06 05:37:00,
2013-07-06 01:42:00,70.3,70.3,30.13,NNE,25,0.0,3.0,100,0.06,,,0.24,meteohub,2013-07-06 05:42:00,
2013-07-06 01:47:00,70.3,70.3,30.13,NNE,25,0.0,3.0,100,0.02,,,0.24,meteohub,2013-07-06 05:47:00,
2013-07-06 01:52:00,70.3,70.3,30.12,NNE,25,0.0,2.0,100,0.02,,,0.24,meteohub,2013-07-06 05:52:00,
2013-07-06 01:57:00,70.3,70.3,30.12,East,82,0.0,1.0,100,0.02,,,0.24,meteohub,2013-07-06 05:57:00,
2013-07-06 02:02:00,70.3,70.3,30.12,East,99,0.0,2.0,100,0.02,,,0.24,meteohub,2013-07-06 06:02:00,
2013-07-06 02:07:00,70.3,70.3,30.12,East,99,0.0,2.0,100,0.02,,,0.24,meteohub,2013-07-06 06:07:00,
2013-07-06 02:12:00,70.3,70.3,30.14,ESE,115,1.0,2.0,100,0.02,,,0.24,meteohub,2013-07-06 06:12:00,
2013-07-06 02:17:00,69.4,68.9,30.14,NW,307,0.0,3.0,98,0.02,,,0.24,meteohub,2013-07-06 06:17:00,
2013-07-06 02:22:00,68.7,68.4,30.14,NW,311,0.0,4.0,99,0.31,,,0.54,meteohub,2013-07-06 06:22:00,
2013-07-06 02:27:00,68.4,68.0,30.13,WNW,284,0.0,4.0,99,0.43,,,0.66,meteohub,2013-07-06 06:27:00,
2013-07-06 02:32:00,68.2,67.8,30.13,East,101,1.0,3.0,99,0.50,,,0.74,meteohub,2013-07-06 06:32:00,
2013-07-06 02:37:00,68.0,67.6,30.13,NNE,16,0.0,2.0,99,0.53,,,0.77,meteohub,2013-07-06 06:37:00,
2013-07-06 02:42:00,67.8,67.5,30.13,North,355,0.0,3.0,99,0.62,,,0.86,meteohub,2013-07-06 06:42:00,
2013-07-06 02:47:00,67.6,67.3,30.13,North,355,0.0,3.0,99,0.73,,,0.97,meteohub,2013-07-06 06:47:00,
2013-07-06 02:52:00,67.5,67.1,30.13,North,357,1.0,1.0,99,0.75,,,0.99,meteohub,2013-07-06 06:52:00,
2013-07-06 02:57:00,67.5,67.5,30.13,North,356,0.0,1.0,100,0.75,,,0.99,meteohub,2013-07-06 06:57:00,
2013-07-06 03:02:00,67.5,67.5,30.13,North,356,0.0,1.0,100,0.76,,,1.00,meteohub,2013-07-06 07:02:00,
2013-07-06 03:07:00,67.5,67.5,30.12,North,357,0.0,1.0,100,0.76,,,1.00,meteohub,2013-07-06 07:07:00,
2013-07-06 03:12:00,67.6,67.6,30.13,North,357,0.0,0.0,100,0.76,,,1.00,meteohub,2013-07-06 07:12:00,
2013-07-06 03:17:00,67.6,67.6,30.12,North,355,0.0,0.0,100,0.60,,,1.00,meteohub,2013-07-06 07:17:00,
2013-07-06 03:22:00,67.6,67.6,30.12,North,356,0.0,0.0,100,0.44,,,1.00,meteohub,2013-07-06 07:22:00,
2013-07-06 03:27:00,67.6,67.6,30.12,North,357,0.0,0.0,100,0.32,,,1.00,meteohub,2013-07-06 07:27:00,
2013-07-06 03:32:00,67.6,67.6,30.12,North,356,0.0,0.0,100,0.24,,,1.00,meteohub,2013-07-06 07:32:00,
2013-07-06 03:37:00,67.6,67.6,30.12,North,357,0.0,0.0,100,0.20,,,1.00,meteohub,2013-07-06 07:37:00,
2013-07-06 03:42:00,67.8,67.8,30.13,North,356,0.0,0.0,100,0.08,,,1.00,meteohub,2013-07-06 07:42:00,
2013-07-06 03:47:00,67.6,67.6,30.13,North,356,0.0,0.0,100,0.01,,,1.00,meteohub,2013-07-06 07:47:00,
2013-07-06 03:52:00,67.6,67.6,30.12,North,356,0.0,0.0,100,0.01,,,1.00,meteohub,2013-07-06 07:52:00,
2013-07-06 03:57:00,67.8,67.8,30.12,North,357,0.0,0.0,100,0.00,,,1.00,meteohub,2013-07-06 07:57:00,
2013-07-06 04:02:00,67.8,67.8,30.13,North,357,0.0,0.0,100,0.00,,,1.00,meteohub,2013-07-06 08:02:00,
2013-07-06 04:07:00,67.8,67.8,30.13,North,356,0.0,0.0,100,0.00,,,1.00,meteohub,2013-07-06 08:07:00,
2013-07-06 04:12:00,67.8,67.8,30.12,North,357,0.0,0.0,100,0.00,,,1.00,meteohub,2013-07-06 08:12:00,
2013-07-06 04:17:00,67.8,67.8,30.12,North,356,0.0,0.0,100,0.00,,,1.00,meteohub,2013-07-06 08:17:00,
2013-07-06 04:22:00,67.8,67.8,30.12,North,357,0.0,0.0,100,0.00,,,1.00,meteohub,2013-07-06 08:22:00,
2013-07-06 04:27:00,67.8,67.8,30.12,North,356,0.0,0.0,100,0.00,,,1.00,meteohub,2013-07-06 08:27:00,
2013-07-06 04:32:00,67.8,67.8,30.12,North,356,0.0,0.0,100,0.00,,,1.00,meteohub,2013-07-06 08:32:00,
2013-07-06 04:37:00,67.8,67.8,30.12,North,356,0.0,0.0,100,0.00,,,1.00,meteohub,2013-07-06 08:37:00,
2013-07-06 04:42:00,67.8,67.8,30.12,North,356,0.0,0.0,100,0.00,,,1.00,meteohub,2013-07-06 08:42:00,
2013-07-06 04:47:00,67.8,67.8,30.12,North,356,0.0,0.0,100,0.00,,,1.00,meteohub,2013-07-06 08:47:00,
2013-07-06 04:52:00,67.8,67.8,30.12,North,356,0.0,0.0,100,0.00,,,1.00,meteohub,2013-07-06 08:52:00,
2013-07-06 04:57:00,67.8,67.8,30.12,North,356,0.0,0.0,100,0.00,,,1.00,meteohub,2013-07-06 08:57:00,
2013-07-06 05:02:00,68.0,68.0,30.12,North,356,0.0,0.0,100,0.00,,,1.00,meteohub,2013-07-06 09:02:00,
2013-07-06 05:07:00,68.2,68.2,30.12,North,356,0.0,0.0,100,0.01,,,1.01,meteohub,2013-07-06 09:07:00,
2013-07-06 05:12:00,68.0,68.0,30.12,North,356,0.0,0.0,100,0.01,,,1.01,meteohub,2013-07-06 09:12:00,
2013-07-06 05:17:00,68.0,68.0,30.12,North,356,0.0,0.0,100,0.01,,,1.01,meteohub,2013-07-06 09:17:00,
2013-07-06 05:22:00,68.0,68.0,30.12,North,356,0.0,1.0,100,0.01,,,1.01,meteohub,2013-07-06 09:22:00,
2013-07-06 05:27:00,68.0,68.0,30.12,North,356,0.0,1.0,100,0.01,,,1.01,meteohub,2013-07-06 09:27:00,
2013-07-06 05:32:00,68.2,68.2,30.12,North,356,0.0,1.0,100,0.01,,,1.01,meteohub,2013-07-06 09:32:00,
2013-07-06 05:37:00,68.2,68.2,30.12,North,356,0.0,1.0,100,0.01,,,1.01,meteohub,2013-07-06 09:37:00,
2013-07-06 05:42:00,68.2,68.2,30.12,North,356,0.0,0.0,100,0.01,,,1.01,meteohub,2013-07-06 09:42:00,
2013-07-06 05:47:00,68.2,68.2,30.12,North,356,0.0,0.0,100,0.01,,,1.01,meteohub,2013-07-06 09:47:00,
2013-07-06 05:52:00,68.4,68.4,30.13,North,356,0.0,0.0,100,0.01,,,1.01,meteohub,2013-07-06 09:52:00,
2013-07-06 05:57:00,68.4,68.4,30.13,North,356,0.0,0.0,100,0.01,,,1.01,meteohub,2013-07-06 09:57:00,
2013-07-06 06:02:00,68.4,68.4,30.13,North,356,0.0,0.0,100,0.01,,,1.01,meteohub,2013-07-06 10:02:00,
2013-07-06 06:07:00,68.4,68.4,30.13,North,356,0.0,0.0,100,0.00,,,1.01,meteohub,2013-07-06 10:07:00,
2013-07-06 06:12:00,68.4,68.4,30.13,North,356,0.0,0.0,100,0.00,,,1.01,meteohub,2013-07-06 10:12:00,
2013-07-06 06:17:00,68.4,68.4,30.13,North,356,0.0,0.0,100,0.00,,,1.01,meteohub,2013-07-06 10:17:00,
2013-07-06 06:22:00,68.4,68.4,30.14,North,356,0.0,0.0,100,0.00,,,1.01,meteohub,2013-07-06 10:22:00,
2013-07-06 06:27:00,68.4,68.4,30.14,North,356,0.0,0.0,100,0.00,,,1.01,meteohub,2013-07-06 10:27:00,
2013-07-06 06:32:00,68.4,68.4,30.14,North,356,0.0,0.0,100,0.00,,,1.01,meteohub,2013-07-06 10:32:00,
2013-07-06 06:37:00,68.4,68.4,30.14,North,356,0.0,0.0,100,0.01,,,1.02,meteohub,2013-07-06 10:37:00,
2013-07-06 06:42:00,68.4,68.4,30.14,North,357,0.0,0.0,100,0.01,,,1.02,meteohub,2013-07-06 10:42:00,
2013-07-06 06:47:00,68.5,68.5,30.14,North,356,0.0,0.0,100,0.01,,,1.02,meteohub,2013-07-06 10:47:00,
2013-07-06 06:52:00,68.5,68.5,30.14,North,356,0.0,0.0,100,0.01,,,1.02,meteohub,2013-07-06 10:52:00,
2013-07-06 06:57:00,68.5,68.5,30.14,North,356,0.0,0.0,100,0.01,,,1.02,meteohub,2013-07-06 10:57:00,
2013-07-06 07:02:00,68.5,68.5,30.14,North,356,0.0,0.0,100,0.01,,,1.02,meteohub,2013-07-06 11:02:00,
2013-07-06 07:07:00,68.5,68.5,30.14,North,356,0.0,0.0,100,0.01,,,1.02,meteohub,2013-07-06 11:07:00,
2013-07-06 07:12:00,68.5,68.5,30.14,North,356,0.0,0.0,100,0.01,,,1.02,meteohub,2013-07-06 11:12:00,
2013-07-06 07:17:00,68.7,68.7,30.14,North,356,0.0,0.0,100,0.01,,,1.02,meteohub,2013-07-06 11:17:00,
2013-07-06 07:22:00,68.7,68.7,30.15,North,356,0.0,0.0,100,0.01,,,1.02,meteohub,2013-07-06 11:22:00,
2013-07-06 07:27:00,68.7,68.7,30.15,North,356,0.0,0.0,100,0.01,,,1.02,meteohub,2013-07-06 11:27:00,
2013-07-06 07:32:00,68.9,68.9,30.15,North,356,0.0,0.0,100,0.00,,,1.02,meteohub,2013-07-06 11:32:00,
2013-07-06 07:37:00,69.1,69.1,30.15,North,356,0.0,1.0,100,0.00,,,1.02,meteohub,2013-07-06 11:37:00,
2013-07-06 07:42:00,69.1,69.1,30.15,North,357,0.0,1.0,100,0.00,,,1.02,meteohub,2013-07-06 11:42:00,
2013-07-06 07:47:00,69.1,69.1,30.15,North,356,0.0,1.0,100,0.00,,,1.02,meteohub,2013-07-06 11:47:00,
2013-07-06 07:52:00,69.3,69.3,30.15,North,356,0.0,0.0,100,0.00,,,1.02,meteohub,2013-07-06 11:52:00,
2013-07-06 07:57:00,69.4,69.4,30.15,North,357,0.0,0.0,100,0.00,,,1.02,meteohub,2013-07-06 11:57:00,
2013-07-06 08:02:00,69.4,69.4,30.16,North,357,0.0,0.0,100,0.00,,,1.02,meteohub,2013-07-06 12:02:00,
2013-07-06 08:07:00,69.6,69.6,30.16,North,356,0.0,0.0,100,0.00,,,1.02,meteohub,2013-07-06 12:07:00,
2013-07-06 08:12:00,70.0,70.0,30.16,North,357,0.0,0.0,100,0.00,,,1.02,meteohub,2013-07-06 12:12:00,
2013-07-06 08:17:00,70.2,70.2,30.16,North,357,0.0,0.0,100,0.00,,,1.02,meteohub,2013-07-06 12:17:00,
2013-07-06 08:22:00,70.2,70.2,30.16,North,357,0.0,0.0,100,0.00,,,1.02,meteohub,2013-07-06 12:22:00,
2013-07-06 08:27:00,70.3,70.3,30.16,North,356,0.0,0.0,100,0.00,,,1.02,meteohub,2013-07-06 12:27:00,
2013-07-06 08:32:00,70.5,70.5,30.16,North,356,0.0,1.0,100,0.00,,,1.02,meteohub,2013-07-06 12:32:00,
2013-07-06 08:38:00,70.7,70.7,30.16,North,356,0.0,1.0,100,0.00,,,1.02,meteohub,2013-07-06 12:38:00,
2013-07-06 08:43:00,70.9,70.9,30.16,North,356,0.0,1.0,100,0.00,,,1.02,meteohub,2013-07-06 12:43:00,
2013-07-06 08:48:00,71.1,71.1,30.16,North,356,0.0,0.0,100,0.00,,,1.02,meteohub,2013-07-06 12:48:00,
2013-07-06 08:53:00,71.1,71.1,30.17,North,356,0.0,0.0,100,0.00,,,1.02,meteohub,2013-07-06 12:53:00,
2013-07-06 08:58:00,71.4,71.4,30.16,North,356,0.0,0.0,100,0.00,,,1.02,meteohub,2013-07-06 12:58:00,
2013-07-06 09:03:00,71.4,71.4,30.16,NNE,19,0.0,0.0,100,0.00,,,1.02,meteohub,2013-07-06 13:03:00,
2013-07-06 09:08:00,71.6,71.6,30.16,NNE,19,0.0,1.0,100,0.00,,,1.02,meteohub,2013-07-06 13:08:00,
2013-07-06 09:13:00,72.3,72.3,30.16,NNE,19,0.0,1.0,100,0.00,,,1.02,meteohub,2013-07-06 13:13:00,
2013-07-06 09:18:00,72.3,72.3,30.16,ESE,104,1.0,2.0,100,0.00,,,1.02,meteohub,2013-07-06 13:18:00,
2013-07-06 09:23:00,72.3,72.0,30.16,SSE,149,0.0,2.0,99,0.00,,,1.02,meteohub,2013-07-06 13:23:00,
2013-07-06 09:28:00,72.5,72.1,30.16,ESE,115,0.0,3.0,99,0.00,,,1.02,meteohub,2013-07-06 13:28:00,
2013-07-06 09:33:00,72.7,72.1,30.16,West,266,0.0,3.0,98,0.00,,,1.02,meteohub,2013-07-06 13:33:00,
2013-07-06 09:38:00,72.9,72.5,30.16,West,267,0.0,2.0,99,0.00,,,1.02,meteohub,2013-07-06 13:38:00,
2013-07-06 09:43:00,73.2,72.7,30.16,West,266,0.0,2.0,98,0.00,,,1.02,meteohub,2013-07-06 13:43:00,
2013-07-06 09:48:00,73.2,72.3,30.16,West,267,0.0,2.0,97,0.00,,,1.02,meteohub,2013-07-06 13:48:00,
2013-07-06 09:53:00,73.4,72.1,30.16,WNW,293,0.0,1.0,96,0.00,,,1.02,meteohub,2013-07-06 13:53:00,
2013-07-06 09:58:00,73.6,72.3,30.16,WNW,293,0.0,1.0,96,0.00,,,1.02,meteohub,2013-07-06 13:58:00,
2013-07-06 10:03:00,73.8,72.5,30.15,NNW,328,0.0,1.0,96,0.00,,,1.02,meteohub,2013-07-06 14:03:00,
2013-07-06 10:08:00,74.1,72.9,30.15,NNW,328,0.0,2.0,96,0.00,,,1.02,meteohub,2013-07-06 14:08:00,
2013-07-06 10:13:00,74.7,73.4,30.15,NNW,328,0.0,2.0,96,0.00,,,1.02,meteohub,2013-07-06 14:13:00,
2013-07-06 10:18:00,74.8,73.0,30.15,NNW,327,0.0,2.0,94,0.00,,,1.02,meteohub,2013-07-06 14:18:00,
2013-07-06 10:23:00,74.7,72.1,30.15,WNW,285,0.0,1.0,92,0.00,,,1.02,meteohub,2013-07-06 14:23:00,
2013-07-06 10:28:00,74.8,72.7,30.15,WNW,285,0.0,3.0,93,0.00,,,1.02,meteohub,2013-07-06 14:28:00,
2013-07-06 10:33:00,74.7,71.8,30.15,East,89,2.0,3.0,91,0.00,,,1.02,meteohub,2013-07-06 14:33:00,
2013-07-06 10:38:00,74.7,71.8,30.15,East,97,0.0,3.0,91,0.00,,,1.02,meteohub,2013-07-06 14:38:00,
2013-07-06 10:43:00,75.0,72.9,30.15,East,98,0.0,3.0,93,0.00,,,1.02,meteohub,2013-07-06 14:43:00,
2013-07-06 10:48:00,75.7,73.6,30.15,NE,37,0.0,2.0,93,0.00,,,1.02,meteohub,2013-07-06 14:48:00,
2013-07-06 10:53:00,76.3,73.8,30.15,SE,139,1.0,3.0,92,0.00,,,1.02,meteohub,2013-07-06 14:53:00,
2013-07-06 10:58:00,77.2,75.0,30.15,SE,142,0.0,3.0,93,0.00,,,1.02,meteohub,2013-07-06 14:58:00,
2013-07-06 11:03:00,77.5,73.8,30.15,WNW,300,2.0,3.0,88,0.00,,,1.02,meteohub,2013-07-06 15:03:00,
2013-07-06 11:08:00,78.1,74.3,30.15,NNE,28,1.0,3.0,88,0.00,,,1.02,meteohub,2013-07-06 15:08:00,
2013-07-06 11:13:00,78.4,72.5,30.15,North,6,1.0,5.0,82,0.00,,,1.02,meteohub,2013-07-06 15:13:00,
2013-07-06 11:18:00,78.8,73.9,30.15,WSW,257,1.0,5.0,85,0.00,,,1.02,meteohub,2013-07-06 15:18:00,
2013-07-06 11:23:00,78.3,73.4,30.15,ESE,122,1.0,5.0,85,0.00,,,1.02,meteohub,2013-07-06 15:23:00,
2013-07-06 11:28:00,77.7,72.9,30.15,East,86,0.0,3.0,85,0.00,,,1.02,meteohub,2013-07-06 15:28:00,
2013-07-06 11:33:00,77.9,72.7,30.15,East,86,0.0,3.0,84,0.00,,,1.02,meteohub,2013-07-06 15:33:00,
2013-07-06 11:38:00,78.1,73.6,30.15,NE,56,0.0,2.0,86,0.00,,,1.02,meteohub,2013-07-06 15:38:00,
2013-07-06 11:43:00,78.4,73.9,30.15,NE,55,0.0,2.0,86,0.00,,,1.02,meteohub,2013-07-06 15:43:00,
2013-07-06 11:48:00,79.3,74.5,30.15,East,86,1.0,2.0,85,0.00,,,1.02,meteohub,2013-07-06 15:48:00,
2013-07-06 11:53:00,79.0,73.0,30.15,West,265,1.0,2.0,82,0.00,,,1.02,meteohub,2013-07-06 15:53:00,
2013-07-06 11:59:00,78.3,73.4,30.14,WNW,288,0.0,3.0,85,0.00,,,1.02,meteohub,2013-07-06 15:59:00,
2013-07-06 12:04:00,78.1,73.6,30.14,ESE,110,1.0,3.0,86,0.00,,,1.02,meteohub,2013-07-06 16:04:00,
2013-07-06 12:09:00,78.1,72.5,30.14,ESE,117,0.0,3.0,83,0.00,,,1.02,meteohub,2013-07-06 16:09:00,
2013-07-06 12:14:00,78.6,73.8,30.14,ESE,117,0.0,3.0,85,0.00,,,1.02,meteohub,2013-07-06 16:14:00,
2013-07-06 12:19:00,79.5,73.2,30.14,North,352,0.0,3.0,81,0.00,,,1.02,meteohub,2013-07-06 16:19:00,
2013-07-06 12:24:00,80.2,73.0,30.14,NNE,27,0.0,3.0,79,0.00,,,1.02,meteohub,2013-07-06 16:24:00,
2013-07-06 12:29:00,80.8,73.9,30.14,West,274,0.0,3.0,80,0.00,,,1.02,meteohub,2013-07-06 16:29:00,
2013-07-06 12:35:00,81.1,74.3,30.14,East,100,0.0,3.0,80,0.00,,,1.02,meteohub,2013-07-06 16:35:00,
2013-07-06 12:40:00,81.7,74.8,30.13,East,100,0.0,3.0,80,0.00,,,1.02,meteohub,2013-07-06 16:40:00,
2013-07-06 12:45:00,82.0,73.4,30.13,WNW,302,0.0,3.0,75,0.00,,,1.02,meteohub,2013-07-06 16:45:00,
2013-07-06 12:50:00,82.0,73.4,30.13,NW,316,0.0,6.0,75,0.00,,,1.02,meteohub,2013-07-06 16:50:00,
2013-07-06 12:56:00,82.2,73.0,30.13,SSW,198,1.0,6.0,74,0.00,,,1.02,meteohub,2013-07-06 16:56:00,
2013-07-06 13:01:00,81.7,72.1,30.13,SE,124,0.0,6.0,73,0.00,,,1.02,meteohub,2013-07-06 17:01:00,
2013-07-06 13:06:00,81.3,71.8,30.13,SW,223,0.0,2.0,73,0.00,,,1.02,meteohub,2013-07-06 17:06:00,
2013-07-06 13:11:00,81.0,73.0,30.12,SW,221,0.0,3.0,77,0.00,,,1.02,meteohub,2013-07-06 17:11:00,
2013-07-06 13:16:00,80.8,73.6,30.12,North,9,0.0,3.0,79,0.00,,,1.02,meteohub,2013-07-06 17:16:00,
2013-07-06 13:21:00,80.4,74.1,30.12,West,269,1.0,3.0,81,0.00,,,1.02,meteohub,2013-07-06 17:21:00,
2013-07-06 13:27:00,81.1,75.2,30.12,WNW,287,1.0,4.0,82,0.00,,,1.02,meteohub,2013-07-06 17:27:00,
2013-07-06 13:32:00,81.3,74.1,30.12,WSW,252,1.0,4.0,79,0.00,,,1.02,meteohub,2013-07-06 17:32:00,
2013-07-06 13:38:00,82.0,76.3,30.12,WSW,253,1.0,3.0,83,0.00,,,1.02,meteohub,2013-07-06 17:38:00,
2013-07-06 13:43:00,82.0,74.5,30.11,ESE,102,0.0,3.0,78,0.00,,,1.02,meteohub,2013-07-06 17:43:00,
2013-07-06 13:50:00,81.5,73.6,30.11,NW,323,0.0,3.0,77,0.00,,,1.02,meteohub,2013-07-06 17:50:00,
2013-07-06 13:55:00,81.9,73.6,30.11,WNW,289,1.0,3.0,76,0.00,,,1.02,meteohub,2013-07-06 17:55:00,
2013-07-06 14:01:00,81.9,73.9,30.11,WNW,289,0.0,1.0,77,0.00,,,1.02,meteohub,2013-07-06 18:01:00,
2013-07-06 14:06:00,82.0,74.1,30.10,NW,318,2.0,2.0,77,0.00,,,1.02,meteohub,2013-07-06 18:06:00,
2013-07-06 14:12:00,82.6,75.4,30.10,SE,146,0.0,2.0,79,0.00,,,1.02,meteohub,2013-07-06 18:12:00,
2013-07-06 14:22:00,82.6,73.8,30.10,SE,124,0.0,3.0,75,0.00,,,1.02,meteohub,2013-07-06 18:22:00,
2013-07-06 14:27:00,81.9,74.3,30.10,SE,124,0.0,2.0,78,0.00,,,1.02,meteohub,2013-07-06 18:27:00,
2013-07-06 14:32:00,82.6,75.4,30.09,SSW,197,0.0,1.0,79,0.00,,,1.02,meteohub,2013-07-06 18:32:00,
2013-07-06 14:37:00,83.1,74.3,30.09,ESE,118,1.0,1.0,75,0.00,,,1.02,meteohub,2013-07-06 18:37:00,
2013-07-06 14:42:00,83.3,74.1,30.09,ESE,115,0.0,1.0,74,0.00,,,1.02,meteohub,2013-07-06 18:42:00,
2013-07-06 14:47:00,83.5,74.7,30.09,WNW,300,0.0,2.0,75,0.00,,,1.02,meteohub,2013-07-06 18:47:00,
2013-07-06 14:52:00,83.7,74.8,30.09,WNW,284,0.0,2.0,75,0.00,,,1.02,meteohub,2013-07-06 18:52:00,
2013-07-06 14:58:00,83.7,72.9,30.08,West,270,1.0,2.0,70,0.00,,,1.02,meteohub,2013-07-06 18:58:00,
2013-07-06 15:04:00,83.7,73.2,30.08,West,280,0.0,3.0,71,0.00,,,1.02,meteohub,2013-07-06 19:04:00,
2013-07-06 15:09:00,84.2,74.1,30.07,WNW,284,0.0,3.0,72,0.00,,,1.02,meteohub,2013-07-06 19:09:00,
2013-07-06 15:15:00,84.7,75.6,30.07,NNE,32,1.0,3.0,74,0.00,,,1.02,meteohub,2013-07-06 19:15:00,
2013-07-06 15:21:00,84.7,73.4,30.07,ESE,122,0.0,2.0,69,0.00,,,1.02,meteohub,2013-07-06 19:21:00,
2013-07-06 15:27:00,84.0,72.3,30.08,SE,127,1.0,2.0,68,0.00,,,1.02,meteohub,2013-07-06 19:27:00,
2013-07-06 15:32:00,81.7,73.0,30.09,SE,140,0.0,2.0,75,0.00,,,1.02,meteohub,2013-07-06 19:32:00,
2013-07-06 15:37:00,79.0,72.3,30.09,East,98,0.0,5.0,80,0.00,,,1.02,meteohub,2013-07-06 19:37:00,
2013-07-06 15:42:00,76.8,72.3,30.09,SE,134,0.0,5.0,86,0.02,,,1.04,meteohub,2013-07-06 19:42:00,
2013-07-06 15:47:00,75.7,72.0,30.09,SE,135,0.0,3.0,88,0.03,,,1.05,meteohub,2013-07-06 19:47:00,
2013-07-06 15:52:00,75.2,72.3,30.09,SE,135,0.0,2.0,91,0.03,,,1.05,meteohub,2013-07-06 19:52:00,
2013-07-06 15:57:00,74.8,72.3,30.09,SE,135,0.0,1.0,92,0.03,,,1.05,meteohub,2013-07-06 19:57:00,
2013-07-06 16:04:00,74.8,72.7,30.09,SE,134,0.0,1.0,93,0.03,,,1.05,meteohub,2013-07-06 20:04:00,
2013-07-06 16:09:00,74.7,72.9,30.08,SE,134,0.0,1.0,94,0.03,,,1.05,meteohub,2013-07-06 20:09:00,
2013-07-06 16:14:00,74.1,72.7,30.08,WSW,258,0.0,1.0,95,0.03,,,1.05,meteohub,2013-07-06 20:14:00,
2013-07-06 16:19:00,74.3,73.0,30.07,West,263,0.0,1.0,96,0.03,,,1.05,meteohub,2013-07-06 20:19:00,
2013-07-06 16:24:00,74.1,72.7,30.07,WNW,301,0.0,1.0,95,0.03,,,1.05,meteohub,2013-07-06 20:24:00,
2013-07-06 16:30:00,73.9,72.7,30.07,NW,305,1.0,1.0,96,0.03,,,1.05,meteohub,2013-07-06 20:30:00,
2013-07-06 16:36:00,74.3,73.4,30.06,NW,319,0.0,2.0,97,0.03,,,1.05,meteohub,2013-07-06 20:36:00,
2013-07-06 16:41:00,74.8,73.6,30.06,NW,319,2.0,2.0,96,0.01,,,1.05,meteohub,2013-07-06 20:41:00,
2013-07-06 16:47:00,74.8,73.2,30.07,NW,319,0.0,2.0,95,0.00,,,1.05,meteohub,2013-07-06 20:47:00,
2013-07-06 16:52:00,75.2,73.6,30.06,NW,319,0.0,2.0,95,0.00,,,1.05,meteohub,2013-07-06 20:52:00,
2013-07-06 16:57:00,75.9,74.1,30.06,West,268,0.0,2.0,94,0.00,,,1.05,meteohub,2013-07-06 20:57:00,
2013-07-06 17:03:00,76.6,74.5,30.06,West,268,0.0,2.0,93,0.00,,,1.05,meteohub,2013-07-06 21:03:00,
2013-07-06 17:08:00,76.6,74.1,30.06,West,268,0.0,2.0,92,0.00,,,1.05,meteohub,2013-07-06 21:08:00,
2013-07-06 17:14:00,76.6,74.1,30.06,West,269,1.0,1.0,92,0.00,,,1.05,meteohub,2013-07-06 21:14:00,
2013-07-06 17:19:00,75.9,73.0,30.06,West,269,0.0,1.0,91,0.00,,,1.05,meteohub,2013-07-06 21:19:00,
2013-07-06 17:24:00,75.6,73.4,30.05,West,269,0.0,1.0,93,0.00,,,1.05,meteohub,2013-07-06 21:24:00,
2013-07-06 17:29:00,75.6,73.8,30.05,West,268,0.0,1.0,94,0.00,,,1.05,meteohub,2013-07-06 21:29:00,
2013-07-06 17:34:00,76.1,73.9,30.05,WNW,284,0.0,1.0,93,0.00,,,1.05,meteohub,2013-07-06 21:34:00,
2013-07-06 17:39:00,76.3,72.5,30.05,WNW,288,1.0,1.0,88,0.00,,,1.05,meteohub,2013-07-06 21:39:00,
2013-07-06 17:45:00,76.3,73.4,30.05,NNW,337,1.0,1.0,91,0.00,,,1.05,meteohub,2013-07-06 21:45:00,
2013-07-06 17:50:00,76.1,73.6,30.06,NW,326,0.0,2.0,92,0.00,,,1.05,meteohub,2013-07-06 21:50:00,
2013-07-06 17:55:00,75.6,73.8,30.06,NW,326,0.0,2.0,94,0.01,,,1.06,meteohub,2013-07-06 21:55:00,
2013-07-06 18:00:00,75.4,73.6,30.06,NNE,21,1.0,1.0,94,0.01,,,1.06,meteohub,2013-07-06 22:00:00,
2013-07-06 18:05:00,75.2,73.9,30.06,NNE,22,0.0,1.0,96,0.01,,,1.06,meteohub,2013-07-06 22:05:00,
2013-07-06 18:11:00,75.4,74.1,30.06,NNE,22,0.0,1.0,96,0.01,,,1.06,meteohub,2013-07-06 22:11:00,
2013-07-06 18:16:00,75.2,73.6,30.06,NNE,22,0.0,1.0,95,0.01,,,1.06,meteohub,2013-07-06 22:16:00,
2013-07-06 18:21:00,75.0,73.4,30.06,NNE,22,0.0,1.0,95,0.01,,,1.06,meteohub,2013-07-06 22:21:00,
2013-07-06 18:26:00,74.8,73.2,30.06,NNE,21,0.0,1.0,95,0.01,,,1.06,meteohub,2013-07-06 22:26:00,
2013-07-06 18:32:00,75.0,73.4,30.05,NNE,21,0.0,1.0,95,0.01,,,1.06,meteohub,2013-07-06 22:32:00,
2013-07-06 18:37:00,75.7,74.1,30.05,NNE,22,0.0,1.0,95,0.01,,,1.06,meteohub,2013-07-06 22:37:00,
2013-07-06 18:42:00,76.6,74.1,30.05,NE,43,0.0,1.0,92,0.01,,,1.06,meteohub,2013-07-06 22:42:00,
2013-07-06 18:48:00,77.5,74.1,30.05,North,349,0.0,1.0,89,0.00,,,1.06,meteohub,2013-07-06 22:48:00,
2013-07-06 18:53:00,78.1,73.9,30.06,NNW,346,0.0,1.0,87,0.00,,,1.06,meteohub,2013-07-06 22:53:00,
2013-07-06 18:58:00,78.4,74.3,30.06,NNW,342,0.0,1.0,87,0.00,,,1.06,meteohub,2013-07-06 22:58:00,
2013-07-06 19:04:00,78.3,74.1,30.06,NNW,342,0.0,1.0,87,0.00,,,1.06,meteohub,2013-07-06 23:04:00,
2013-07-06 19:09:00,77.7,74.3,30.06,NNW,342,0.0,1.0,89,0.00,,,1.06,meteohub,2013-07-06 23:09:00,
2013-07-06 19:14:00,77.4,74.1,30.07,NNW,343,0.0,1.0,90,0.00,,,1.06,meteohub,2013-07-06 23:14:00,
2013-07-06 19:19:00,76.6,73.8,30.07,NNW,342,0.0,1.0,91,0.00,,,1.06,meteohub,2013-07-06 23:19:00,
2013-07-06 19:25:00,76.3,73.8,30.07,NNW,343,0.0,0.0,92,0.00,,,1.06,meteohub,2013-07-06 23:25:00,
2013-07-06 19:30:00,75.9,74.1,30.07,NNW,342,0.0,0.0,94,0.00,,,1.06,meteohub,2013-07-06 23:30:00,
2013-07-06 19:35:00,75.9,74.3,30.07,NNW,342,0.0,1.0,95,0.00,,,1.06,meteohub,2013-07-06 23:35:00,
2013-07-06 19:40:00,75.7,74.1,30.07,NNW,342,0.0,1.0,95,0.00,,,1.06,meteohub,2013-07-06 23:40:00,
2013-07-06 19:45:00,75.7,74.1,30.07,NNW,342,0.0,1.0,95,0.00,,,1.06,meteohub,2013-07-06 23:45:00,
2013-07-06 19:51:00,75.6,73.9,30.07,NNW,342,0.0,1.0,95,0.00,,,1.06,meteohub,2013-07-06 23:51:00,
2013-07-06 19:56:00,75.6,74.3,30.07,NNW,342,0.0,1.0,96,0.00,,,1.06,meteohub,2013-07-06 23:56:00,
2013-07-06 20:01:00,75.4,74.1,30.07,NNW,342,0.0,0.0,96,0.00,,,1.06,meteohub,2013-07-07 00:01:00,
2013-07-06 20:08:00,75.2,73.9,30.07,NNW,342,0.0,0.0,96,0.00,,,1.06,meteohub,2013-07-07 00:08:00,
2013-07-06 20:13:00,75.0,73.8,30.08,NNW,342,0.0,0.0,96,0.00,,,1.06,meteohub,2013-07-07 00:13:00,
2013-07-06 20:18:00,75.0,73.8,30.08,NNW,342,0.0,0.0,96,0.00,,,1.06,meteohub,2013-07-07 00:18:00,
2013-07-06 20:24:00,74.8,73.9,30.08,NNW,342,0.0,0.0,97,0.00,,,1.06,meteohub,2013-07-07 00:24:00,
2013-07-06 20:30:00,74.7,73.4,30.08,NNW,342,0.0,0.0,96,0.00,,,1.06,meteohub,2013-07-07 00:30:00,
2013-07-06 20:35:00,74.7,73.8,30.08,NNW,342,0.0,1.0,97,0.00,,,1.06,meteohub,2013-07-07 00:35:00,
2013-07-06 20:40:00,74.5,73.6,30.08,NNW,342,0.0,1.0,97,0.00,,,1.06,meteohub,2013-07-07 00:40:00,
2013-07-06 20:46:00,74.3,73.4,30.08,NNW,342,0.0,0.0,97,0.00,,,1.06,meteohub,2013-07-07 00:46:00,
2013-07-06 20:51:00,74.1,73.6,30.07,NNW,342,1.0,0.0,98,0.00,,,1.06,meteohub,2013-07-07 00:51:00,
2013-07-06 20:56:00,73.9,73.4,30.07,NNW,342,0.0,1.0,98,0.00,,,1.06,meteohub,2013-07-07 00:56:00,
2013-07-06 21:02:00,73.8,73.2,30.07,NNW,342,0.0,1.0,98,0.00,,,1.06,meteohub,2013-07-07 01:02:00,
2013-07-06 21:07:00,73.8,73.2,30.07,NNW,342,0.0,1.0,98,0.01,,,1.07,meteohub,2013-07-07 01:07:00,
2013-07-06 21:13:00,73.6,73.0,30.07,NNW,342,0.0,0.0,98,0.01,,,1.07,meteohub,2013-07-07 01:13:00,
2013-07-06 21:18:00,73.6,73.0,30.08,NNW,342,0.0,0.0,98,0.01,,,1.07,meteohub,2013-07-07 01:18:00,
2013-07-06 21:24:00,73.2,72.7,30.08,NNW,342,0.0,0.0,98,0.01,,,1.07,meteohub,2013-07-07 01:24:00,
2013-07-06 21:29:00,73.2,72.9,30.08,NNW,342,0.0,0.0,99,0.01,,,1.07,meteohub,2013-07-07 01:29:00,
2013-07-06 21:34:00,73.2,72.9,30.09,NNW,342,0.0,1.0,99,0.01,,,1.07,meteohub,2013-07-07 01:34:00,
2013-07-06 21:40:00,73.0,72.7,30.09,NNW,343,0.0,1.0,99,0.01,,,1.07,meteohub,2013-07-07 01:40:00,
2013-07-06 21:46:00,72.9,72.5,30.09,NNW,342,0.0,1.0,99,0.01,,,1.07,meteohub,2013-07-07 01:46:00,
2013-07-06 21:52:00,72.9,72.5,30.09,NNW,339,0.0,1.0,99,0.01,,,1.07,meteohub,2013-07-07 01:52:00,
2013-07-06 21:58:00,72.7,72.3,30.09,NNW,338,0.0,1.0,99,0.01,,,1.07,meteohub,2013-07-07 01:58:00,
2013-07-06 22:03:00,72.5,72.1,30.10,NNW,339,0.0,1.0,99,0.00,,,1.07,meteohub,2013-07-07 02:03:00,
2013-07-06 22:08:00,72.3,72.0,30.10,NNW,338,0.0,1.0,99,0.00,,,1.07,meteohub,2013-07-07 02:08:00,
2013-07-06 22:13:00,72.3,72.0,30.10,NNW,339,0.0,0.0,99,0.00,,,1.07,meteohub,2013-07-07 02:13:00,
2013-07-06 22:18:00,72.3,72.0,30.10,NNW,338,0.0,0.0,99,0.00,,,1.07,meteohub,2013-07-07 02:18:00,
2013-07-06 22:24:00,72.1,71.8,30.10,NNW,339,0.0,0.0,99,0.00,,,1.07,meteohub,2013-07-07 02:24:00,
2013-07-06 22:29:00,72.1,71.8,30.11,NNW,338,0.0,0.0,99,0.00,,,1.07,meteohub,2013-07-07 02:29:00,
2013-07-06 22:34:00,72.1,71.8,30.11,NNW,338,0.0,0.0,99,0.00,,,1.07,meteohub,2013-07-07 02:34:00,
2013-07-06 22:39:00,72.0,71.6,30.11,NNW,339,0.0,0.0,99,0.00,,,1.07,meteohub,2013-07-07 02:39:00,
2013-07-06 22:44:00,72.0,71.6,30.11,NNW,339,0.0,1.0,99,0.00,,,1.07,meteohub,2013-07-07 02:44:00,
2013-07-06 22:49:00,72.0,71.6,30.11,NNW,339,0.0,1.0,99,0.00,,,1.07,meteohub,2013-07-07 02:49:00,
2013-07-06 22:58:00,72.0,71.6,30.11,NNW,338,0.0,1.0,99,0.00,,,1.07,meteohub,2013-07-07 02:58:00,
2013-07-06 23:04:00,72.0,71.6,30.11,NNW,339,0.0,0.0,99,0.00,,,1.07,meteohub,2013-07-07 03:04:00,
2013-07-06 23:10:00,72.0,71.6,30.11,NNW,339,0.0,0.0,99,0.00,,,1.07,meteohub,2013-07-07 03:10:00,
2013-07-06 23:15:00,71.8,71.4,30.10,NNW,339,0.0,0.0,99,0.00,,,1.07,meteohub,2013-07-07 03:15:00,
2013-07-06 23:20:00,71.8,71.4,30.11,NNW,339,0.0,0.0,99,0.00,,,1.07,meteohub,2013-07-07 03:20:00,
2013-07-06 23:26:00,71.8,71.4,30.11,NNW,339,0.0,0.0,99,0.00,,,1.07,meteohub,2013-07-07 03:26:00,
2013-07-06 23:31:00,71.8,71.4,30.11,NNW,338,0.0,0.0,99,0.00,,,1.07,meteohub,2013-07-07 03:31:00,
2013-07-06 23:37:00,71.8,71.8,30.12,NNW,338,0.0,0.0,100,0.00,,,1.07,meteohub,2013-07-07 03:37:00,
2013-07-06 23:42:00,71.8,71.4,30.11,NNW,339,0.0,0.0,99,0.00,,,1.07,meteohub,2013-07-07 03:42:00,
2013-07-06 23:48:00,71.8,71.4,30.11,NNW,345,0.0,0.0,99,0.00,,,1.07,meteohub,2013-07-07 03:48:00,
2013-07-06 23:53:00,71.8,71.8,30.11,NNW,346,0.0,3.0,100,0.00,,,1.07,meteohub,2013-07-07 03:53:00,
2013-07-06 23:58:00,71.8,71.8,30.11,NNW,346,0.0,3.0,100,0.00,,,1.07,meteohub,2013-07-07 03:58:00,